sensor_id;sensor_type;location;lat;lon;timestamp;temperature;humidity
7117;DHT22;3600;48.568;7.870;2024-03-07T00:00:35;7.30;99.90
7117;DHT22;3600;48.568;7.870;2024-03-07T00:03:03;7.20;99.90
7117;DHT22;3600;48.568;7.870;2024-03-07T00:05:30;7.10;99.90
7117;DHT22;3600;48.568;7.870;2024-03-07T00:07:57;7.00;99.90
7117;DHT22;3600;48.568;7.870;2024-03-07T00:10:24;7.00;99.90
7117;DHT22;3600;48.568;7.870;2024-03-07T00:12:51;7.00;99.90
7117;DHT22;3600;48.568;7.870;2024-03-07T00:15:21;7.00;99.90
7117;DHT22;3600;48.568;7.870;2024-03-07T00:17:48;7.00;99.90
7117;DHT22;3600;48.568;7.870;2024-03-07T00:20:15;7.00;99.90
7117;DHT22;3600;48.568;7.870;2024-03-07T00:22:45;7.00;99.90
7117;DHT22;3600;48.568;7.870;2024-03-07T00:25:12;7.00;99.90
7117;DHT22;3600;48.568;7.870;2024-03-07T00:27:41;6.90;99.90
7117;DHT22;3600;48.568;7.870;2024-03-07T00:30:08;7.00;99.90
7117;DHT22;3600;48.568;7.870;2024-03-07T00:32:35;7.00;99.90
7117;DHT22;3600;48.568;7.870;2024-03-07T00:35:07;6.90;99.90
7117;DHT22;3600;48.568;7.870;2024-03-07T00:37:37;6.90;99.90
7117;DHT22;3600;48.568;7.870;2024-03-07T00:40:04;6.90;99.90
7117;DHT22;3600;48.568;7.870;2024-03-07T00:42:31;6.90;99.90
7117;DHT22;3600;48.568;7.870;2024-03-07T00:44:58;6.90;99.90
7117;DHT22;3600;48.568;7.870;2024-03-07T00:47:24;6.90;99.90
7117;DHT22;3600;48.568;7.870;2024-03-07T00:49:51;6.80;99.90
7117;DHT22;3600;48.568;7.870;2024-03-07T00:52:18;6.80;99.90
7117;DHT22;3600;48.568;7.870;2024-03-07T00:54:45;6.80;99.90
7117;DHT22;3600;48.568;7.870;2024-03-07T00:57:12;6.80;99.90
7117;DHT22;3600;48.568;7.870;2024-03-07T00:59:38;6.80;99.90
7117;DHT22;3600;48.568;7.870;2024-03-07T01:02:05;6.80;99.90
7117;DHT22;3600;48.568;7.870;2024-03-07T01:04:32;6.90;99.90
7117;DHT22;3600;48.568;7.870;2024-03-07T01:07:00;6.80;99.90
7117;DHT22;3600;48.568;7.870;2024-03-07T01:09:28;6.80;99.90
7117;DHT22;3600;48.568;7.870;2024-03-07T01:11:56;6.80;99.90
7117;DHT22;3600;48.568;7.870;2024-03-07T01:14:23;6.80;99.90
7117;DHT22;3600;48.568;7.870;2024-03-07T01:16:50;6.80;99.90
7117;DHT22;3600;48.568;7.870;2024-03-07T01:19:17;6.80;99.90
7117;DHT22;3600;48.568;7.870;2024-03-07T01:21:44;6.70;99.90
7117;DHT22;3600;48.568;7.870;2024-03-07T01:24:11;6.70;99.90
7117;DHT22;3600;48.568;7.870;2024-03-07T01:26:38;6.70;99.90
7117;DHT22;3600;48.568;7.870;2024-03-07T01:29:04;6.70;99.90
7117;DHT22;3600;48.568;7.870;2024-03-07T01:31:34;6.80;99.90
7117;DHT22;3600;48.568;7.870;2024-03-07T01:34:01;6.80;99.90
7117;DHT22;3600;48.568;7.870;2024-03-07T01:36:27;6.80;99.90
7117;DHT22;3600;48.568;7.870;2024-03-07T01:38:54;6.80;99.90
7117;DHT22;3600;48.568;7.870;2024-03-07T01:41:21;6.80;99.90
7117;DHT22;3600;48.568;7.870;2024-03-07T01:43:48;6.70;99.90
7117;DHT22;3600;48.568;7.870;2024-03-07T01:46:15;6.80;99.90
7117;DHT22;3600;48.568;7.870;2024-03-07T01:48:42;6.80;99.90
7117;DHT22;3600;48.568;7.870;2024-03-07T01:51:08;6.90;99.90
7117;DHT22;3600;48.568;7.870;2024-03-07T01:53:35;6.90;99.90
7117;DHT22;3600;48.568;7.870;2024-03-07T01:56:03;6.80;99.90
7117;DHT22;3600;48.568;7.870;2024-03-07T01:58:31;6.80;99.90
7117;DHT22;3600;48.568;7.870;2024-03-07T02:00:59;6.80;99.90
7117;DHT22;3600;48.568;7.870;2024-03-07T02:03:26;6.80;99.90
7117;DHT22;3600;48.568;7.870;2024-03-07T02:05:53;6.80;99.90
7117;DHT22;3600;48.568;7.870;2024-03-07T02:08:21;6.70;99.90
7117;DHT22;3600;48.568;7.870;2024-03-07T02:10:48;6.80;99.90
7117;DHT22;3600;48.568;7.870;2024-03-07T02:13:16;6.90;99.90
7117;DHT22;3600;48.568;7.870;2024-03-07T02:15:42;6.90;99.90
7117;DHT22;3600;48.568;7.870;2024-03-07T02:18:10;6.80;99.90
7117;DHT22;3600;48.568;7.870;2024-03-07T02:20:37;6.80;99.90
7117;DHT22;3600;48.568;7.870;2024-03-07T02:23:04;6.80;99.90
7117;DHT22;3600;48.568;7.870;2024-03-07T02:25:31;6.80;99.90
7117;DHT22;3600;48.568;7.870;2024-03-07T02:28:05;6.80;99.90
7117;DHT22;3600;48.568;7.870;2024-03-07T02:30:32;6.70;99.90
7117;DHT22;3600;48.568;7.870;2024-03-07T02:32:59;6.70;99.90
7117;DHT22;3600;48.568;7.870;2024-03-07T02:35:34;6.70;99.90
7117;DHT22;3600;48.568;7.870;2024-03-07T02:38:06;6.60;99.90
7117;DHT22;3600;48.568;7.870;2024-03-07T02:40:32;6.70;99.90
7117;DHT22;3600;48.568;7.870;2024-03-07T02:42:59;6.80;99.90
7117;DHT22;3600;48.568;7.870;2024-03-07T02:45:26;6.80;99.90
7117;DHT22;3600;48.568;7.870;2024-03-07T02:47:53;6.60;99.90
7117;DHT22;3600;48.568;7.870;2024-03-07T02:50:21;6.70;99.90
7117;DHT22;3600;48.568;7.870;2024-03-07T02:52:51;6.60;99.90
7117;DHT22;3600;48.568;7.870;2024-03-07T02:55:19;6.50;99.90
7117;DHT22;3600;48.568;7.870;2024-03-07T02:57:47;6.40;99.90
7117;DHT22;3600;48.568;7.870;2024-03-07T03:00:14;6.40;99.90
7117;DHT22;3600;48.568;7.870;2024-03-07T03:02:53;6.30;99.90
7117;DHT22;3600;48.568;7.870;2024-03-07T03:05:21;6.20;99.90
7117;DHT22;3600;48.568;7.870;2024-03-07T03:07:48;6.20;99.90
7117;DHT22;3600;48.568;7.870;2024-03-07T03:10:22;6.30;99.90
7117;DHT22;3600;48.568;7.870;2024-03-07T03:12:53;6.20;99.90
7117;DHT22;3600;48.568;7.870;2024-03-07T03:15:21;6.30;99.90
7117;DHT22;3600;48.568;7.870;2024-03-07T03:17:48;6.20;99.90
7117;DHT22;3600;48.568;7.870;2024-03-07T03:20:15;6.10;99.90
7117;DHT22;3600;48.568;7.870;2024-03-07T03:22:52;6.00;99.90
7117;DHT22;3600;48.568;7.870;2024-03-07T03:25:40;5.90;99.90
7117;DHT22;3600;48.568;7.870;2024-03-07T03:28:08;5.90;99.90
7117;DHT22;3600;48.568;7.870;2024-03-07T03:30:39;5.90;99.90
7117;DHT22;3600;48.568;7.870;2024-03-07T03:33:06;5.80;99.90
7117;DHT22;3600;48.568;7.870;2024-03-07T03:35:37;5.80;99.90
7117;DHT22;3600;48.568;7.870;2024-03-07T03:38:05;5.80;99.90
7117;DHT22;3600;48.568;7.870;2024-03-07T03:40:32;5.70;99.90
7117;DHT22;3600;48.568;7.870;2024-03-07T03:42:59;5.80;99.90
7117;DHT22;3600;48.568;7.870;2024-03-07T03:45:26;5.80;99.90
7117;DHT22;3600;48.568;7.870;2024-03-07T03:47:54;5.80;99.90
7117;DHT22;3600;48.568;7.870;2024-03-07T03:50:21;5.70;99.90
7117;DHT22;3600;48.568;7.870;2024-03-07T03:52:51;5.80;99.90
7117;DHT22;3600;48.568;7.870;2024-03-07T03:55:18;5.70;99.90
7117;DHT22;3600;48.568;7.870;2024-03-07T03:57:45;5.70;99.90
7117;DHT22;3600;48.568;7.870;2024-03-07T04:00:16;5.60;99.90
7117;DHT22;3600;48.568;7.870;2024-03-07T04:02:45;5.70;99.90
7117;DHT22;3600;48.568;7.870;2024-03-07T04:05:16;5.70;99.90
7117;DHT22;3600;48.568;7.870;2024-03-07T04:07:43;5.60;99.90
7117;DHT22;3600;48.568;7.870;2024-03-07T04:10:11;5.50;99.90
7117;DHT22;3600;48.568;7.870;2024-03-07T04:12:40;5.50;99.90
7117;DHT22;3600;48.568;7.870;2024-03-07T04:15:08;5.40;99.90
7117;DHT22;3600;48.568;7.870;2024-03-07T04:17:36;5.30;99.90
7117;DHT22;3600;48.568;7.870;2024-03-07T04:20:05;5.40;99.90
7117;DHT22;3600;48.568;7.870;2024-03-07T04:22:33;5.50;99.90
7117;DHT22;3600;48.568;7.870;2024-03-07T04:25:01;5.20;99.90
7117;DHT22;3600;48.568;7.870;2024-03-07T04:27:28;5.20;99.90
7117;DHT22;3600;48.568;7.870;2024-03-07T04:29:55;5.40;99.90
7117;DHT22;3600;48.568;7.870;2024-03-07T04:32:22;5.50;99.90
7117;DHT22;3600;48.568;7.870;2024-03-07T04:34:49;5.40;99.90
7117;DHT22;3600;48.568;7.870;2024-03-07T04:37:16;5.30;99.90
7117;DHT22;3600;48.568;7.870;2024-03-07T04:39:43;5.20;99.90
7117;DHT22;3600;48.568;7.870;2024-03-07T04:42:10;5.10;99.90
7117;DHT22;3600;48.568;7.870;2024-03-07T04:44:37;5.00;99.90
7117;DHT22;3600;48.568;7.870;2024-03-07T04:47:04;4.90;99.90
7117;DHT22;3600;48.568;7.870;2024-03-07T04:49:32;4.80;99.90
7117;DHT22;3600;48.568;7.870;2024-03-07T04:52:01;4.80;99.90
7117;DHT22;3600;48.568;7.870;2024-03-07T04:54:29;4.70;99.90
7117;DHT22;3600;48.568;7.870;2024-03-07T04:57:03;4.90;99.90
7117;DHT22;3600;48.568;7.870;2024-03-07T04:59:32;5.00;99.90
7117;DHT22;3600;48.568;7.870;2024-03-07T05:01:58;5.10;99.90
7117;DHT22;3600;48.568;7.870;2024-03-07T05:04:25;5.10;99.90
7117;DHT22;3600;48.568;7.870;2024-03-07T05:06:55;5.10;99.90
7117;DHT22;3600;48.568;7.870;2024-03-07T05:09:24;5.10;99.90
7117;DHT22;3600;48.568;7.870;2024-03-07T05:11:53;4.70;99.90
7117;DHT22;3600;48.568;7.870;2024-03-07T05:14:21;4.70;99.90
7117;DHT22;3600;48.568;7.870;2024-03-07T05:16:52;4.60;99.90
7117;DHT22;3600;48.568;7.870;2024-03-07T05:19:37;4.70;99.90
7117;DHT22;3600;48.568;7.870;2024-03-07T05:22:04;4.50;99.90
7117;DHT22;3600;48.568;7.870;2024-03-07T05:24:32;4.50;99.90
7117;DHT22;3600;48.568;7.870;2024-03-07T05:27:01;4.60;99.90
7117;DHT22;3600;48.568;7.870;2024-03-07T05:29:28;4.50;99.90
7117;DHT22;3600;48.568;7.870;2024-03-07T05:31:55;4.40;99.90
7117;DHT22;3600;48.568;7.870;2024-03-07T05:34:22;4.40;99.90
7117;DHT22;3600;48.568;7.870;2024-03-07T05:36:50;4.30;99.90
7117;DHT22;3600;48.568;7.870;2024-03-07T05:39:18;4.20;99.90
7117;DHT22;3600;48.568;7.870;2024-03-07T05:41:45;4.20;99.90
7117;DHT22;3600;48.568;7.870;2024-03-07T05:44:13;4.30;99.90
7117;DHT22;3600;48.568;7.870;2024-03-07T05:46:43;4.30;99.90
7117;DHT22;3600;48.568;7.870;2024-03-07T05:49:15;4.60;99.90
7117;DHT22;3600;48.568;7.870;2024-03-07T05:51:43;4.70;99.90
7117;DHT22;3600;48.568;7.870;2024-03-07T05:54:12;4.50;99.90
7117;DHT22;3600;48.568;7.870;2024-03-07T05:56:40;4.40;99.90
7117;DHT22;3600;48.568;7.870;2024-03-07T05:59:08;4.40;99.90
7117;DHT22;3600;48.568;7.870;2024-03-07T06:01:39;4.60;99.90
7117;DHT22;3600;48.568;7.870;2024-03-07T06:04:06;4.70;99.90
7117;DHT22;3600;48.568;7.870;2024-03-07T06:06:34;4.60;99.90
7117;DHT22;3600;48.568;7.870;2024-03-07T06:09:04;4.50;99.90
7117;DHT22;3600;48.568;7.870;2024-03-07T06:11:35;4.40;99.90
7117;DHT22;3600;48.568;7.870;2024-03-07T06:14:06;4.40;99.90
7117;DHT22;3600;48.568;7.870;2024-03-07T06:16:36;4.40;99.90
7117;DHT22;3600;48.568;7.870;2024-03-07T06:19:03;4.30;99.90
7117;DHT22;3600;48.568;7.870;2024-03-07T06:21:32;4.30;99.90
7117;DHT22;3600;48.568;7.870;2024-03-07T06:24:00;4.20;99.90
7117;DHT22;3600;48.568;7.870;2024-03-07T06:26:31;4.20;99.90
7117;DHT22;3600;48.568;7.870;2024-03-07T06:29:14;4.20;99.90
7117;DHT22;3600;48.568;7.870;2024-03-07T06:31:45;4.10;99.90
7117;DHT22;3600;48.568;7.870;2024-03-07T06:34:16;4.10;99.90
7117;DHT22;3600;48.568;7.870;2024-03-07T06:36:44;4.20;99.90
7117;DHT22;3600;48.568;7.870;2024-03-07T06:39:11;4.20;99.90
7117;DHT22;3600;48.568;7.870;2024-03-07T06:41:39;4.30;99.90
7117;DHT22;3600;48.568;7.870;2024-03-07T06:44:07;4.40;99.90
7117;DHT22;3600;48.568;7.870;2024-03-07T06:46:34;4.40;99.90
7117;DHT22;3600;48.568;7.870;2024-03-07T06:49:01;4.20;99.90
7117;DHT22;3600;48.568;7.870;2024-03-07T06:51:31;4.10;99.90
7117;DHT22;3600;48.568;7.870;2024-03-07T06:53:59;4.30;99.90
7117;DHT22;3600;48.568;7.870;2024-03-07T06:56:26;4.30;99.90
7117;DHT22;3600;48.568;7.870;2024-03-07T06:58:53;4.30;99.90
7117;DHT22;3600;48.568;7.870;2024-03-07T07:01:20;4.40;99.90
7117;DHT22;3600;48.568;7.870;2024-03-07T07:03:47;4.30;99.90
7117;DHT22;3600;48.568;7.870;2024-03-07T07:06:15;4.40;99.90
7117;DHT22;3600;48.568;7.870;2024-03-07T07:08:44;4.30;99.90
7117;DHT22;3600;48.568;7.870;2024-03-07T07:11:12;4.30;99.90
7117;DHT22;3600;48.568;7.870;2024-03-07T07:13:39;4.30;99.90
7117;DHT22;3600;48.568;7.870;2024-03-07T07:16:09;4.30;99.90
7117;DHT22;3600;48.568;7.870;2024-03-07T07:18:36;4.30;99.90
7117;DHT22;3600;48.568;7.870;2024-03-07T07:21:04;4.40;99.90
7117;DHT22;3600;48.568;7.870;2024-03-07T07:23:32;4.50;99.90
7117;DHT22;3600;48.568;7.870;2024-03-07T07:25:59;4.60;99.90
7117;DHT22;3600;48.568;7.870;2024-03-07T07:28:26;4.60;99.90
7117;DHT22;3600;48.568;7.870;2024-03-07T07:30:53;4.50;99.90
7117;DHT22;3600;48.568;7.870;2024-03-07T07:33:20;4.50;99.90
7117;DHT22;3600;48.568;7.870;2024-03-07T07:35:47;4.50;99.90
7117;DHT22;3600;48.568;7.870;2024-03-07T07:38:14;4.40;99.90
7117;DHT22;3600;48.568;7.870;2024-03-07T07:40:42;4.50;99.90
7117;DHT22;3600;48.568;7.870;2024-03-07T07:43:10;4.50;99.90
7117;DHT22;3600;48.568;7.870;2024-03-07T07:45:47;4.50;99.90
7117;DHT22;3600;48.568;7.870;2024-03-07T07:48:14;4.50;99.90
7117;DHT22;3600;48.568;7.870;2024-03-07T07:50:43;4.70;99.90
7117;DHT22;3600;48.568;7.870;2024-03-07T07:53:10;4.50;99.90
7117;DHT22;3600;48.568;7.870;2024-03-07T07:55:37;4.60;99.90
7117;DHT22;3600;48.568;7.870;2024-03-07T07:58:05;4.60;99.90
7117;DHT22;3600;48.568;7.870;2024-03-07T08:00:31;4.70;99.90
7117;DHT22;3600;48.568;7.870;2024-03-07T08:03:00;4.70;99.90
7117;DHT22;3600;48.568;7.870;2024-03-07T08:05:29;4.80;99.90
7117;DHT22;3600;48.568;7.870;2024-03-07T08:07:57;4.80;99.90
7117;DHT22;3600;48.568;7.870;2024-03-07T08:10:28;4.90;99.90
7117;DHT22;3600;48.568;7.870;2024-03-07T08:13:00;4.90;99.90
7117;DHT22;3600;48.568;7.870;2024-03-07T08:15:29;4.80;99.90
7117;DHT22;3600;48.568;7.870;2024-03-07T08:17:57;4.90;99.90
7117;DHT22;3600;48.568;7.870;2024-03-07T08:20:25;4.90;99.90
7117;DHT22;3600;48.568;7.870;2024-03-07T08:22:53;4.90;99.90
7117;DHT22;3600;48.568;7.870;2024-03-07T08:25:24;5.10;99.90
7117;DHT22;3600;48.568;7.870;2024-03-07T08:27:53;5.20;99.90
7117;DHT22;3600;48.568;7.870;2024-03-07T08:30:20;5.30;99.90
7117;DHT22;3600;48.568;7.870;2024-03-07T08:32:50;5.20;99.90
7117;DHT22;3600;48.568;7.870;2024-03-07T08:35:19;5.10;99.90
7117;DHT22;3600;48.568;7.870;2024-03-07T08:37:47;5.10;99.90
7117;DHT22;3600;48.568;7.870;2024-03-07T08:40:22;5.10;99.90
7117;DHT22;3600;48.568;7.870;2024-03-07T08:42:54;5.20;99.90
7117;DHT22;3600;48.568;7.870;2024-03-07T08:45:23;5.30;99.90
7117;DHT22;3600;48.568;7.870;2024-03-07T08:47:51;5.40;99.90
7117;DHT22;3600;48.568;7.870;2024-03-07T08:50:18;5.50;99.90
7117;DHT22;3600;48.568;7.870;2024-03-07T08:52:46;5.60;99.90
7117;DHT22;3600;48.568;7.870;2024-03-07T08:55:16;5.60;99.90
7117;DHT22;3600;48.568;7.870;2024-03-07T08:57:44;5.60;99.90
7117;DHT22;3600;48.568;7.870;2024-03-07T09:00:15;5.60;99.90
7117;DHT22;3600;48.568;7.870;2024-03-07T09:02:58;5.70;99.90
7117;DHT22;3600;48.568;7.870;2024-03-07T09:05:29;5.80;99.90
7117;DHT22;3600;48.568;7.870;2024-03-07T09:07:56;5.90;99.90
7117;DHT22;3600;48.568;7.870;2024-03-07T09:10:26;5.90;99.90
7117;DHT22;3600;48.568;7.870;2024-03-07T09:12:56;6.00;99.90
7117;DHT22;3600;48.568;7.870;2024-03-07T09:15:23;6.00;99.90
7117;DHT22;3600;48.568;7.870;2024-03-07T09:17:51;6.00;99.90
7117;DHT22;3600;48.568;7.870;2024-03-07T09:20:20;6.00;99.90
7117;DHT22;3600;48.568;7.870;2024-03-07T09:22:47;6.00;99.90
7117;DHT22;3600;48.568;7.870;2024-03-07T09:25:22;6.00;99.90
7117;DHT22;3600;48.568;7.870;2024-03-07T09:27:50;6.10;99.90
7117;DHT22;3600;48.568;7.870;2024-03-07T09:30:17;6.30;99.90
7117;DHT22;3600;48.568;7.870;2024-03-07T09:32:48;6.40;99.90
7117;DHT22;3600;48.568;7.870;2024-03-07T09:35:16;6.50;99.90
7117;DHT22;3600;48.568;7.870;2024-03-07T09:37:43;6.50;99.90
7117;DHT22;3600;48.568;7.870;2024-03-07T09:40:11;6.50;99.90
7117;DHT22;3600;48.568;7.870;2024-03-07T09:42:48;6.60;99.90
7117;DHT22;3600;48.568;7.870;2024-03-07T09:45:20;6.70;99.90
7117;DHT22;3600;48.568;7.870;2024-03-07T09:47:50;6.80;99.90
7117;DHT22;3600;48.568;7.870;2024-03-07T09:50:21;6.80;99.90
7117;DHT22;3600;48.568;7.870;2024-03-07T09:52:50;6.80;99.90
7117;DHT22;3600;48.568;7.870;2024-03-07T09:55:19;6.80;99.90
7117;DHT22;3600;48.568;7.870;2024-03-07T09:57:48;6.80;99.90
7117;DHT22;3600;48.568;7.870;2024-03-07T10:00:17;6.80;99.90
7117;DHT22;3600;48.568;7.870;2024-03-07T10:03:05;6.80;99.90
7117;DHT22;3600;48.568;7.870;2024-03-07T10:05:33;6.90;99.90
7117;DHT22;3600;48.568;7.870;2024-03-07T10:08:00;7.00;99.90
7117;DHT22;3600;48.568;7.870;2024-03-07T10:10:28;7.00;99.90
7117;DHT22;3600;48.568;7.870;2024-03-07T10:12:57;6.90;99.90
7117;DHT22;3600;48.568;7.870;2024-03-07T10:15:44;7.00;99.90
7117;DHT22;3600;48.568;7.870;2024-03-07T10:18:10;6.90;99.90
7117;DHT22;3600;48.568;7.870;2024-03-07T10:20:37;7.00;99.90
7117;DHT22;3600;48.568;7.870;2024-03-07T10:23:06;7.10;99.90
7117;DHT22;3600;48.568;7.870;2024-03-07T10:25:34;7.10;99.90
7117;DHT22;3600;48.568;7.870;2024-03-07T10:28:02;7.10;99.90
7117;DHT22;3600;48.568;7.870;2024-03-07T10:30:30;7.10;99.90
7117;DHT22;3600;48.568;7.870;2024-03-07T10:32:58;7.10;99.90
7117;DHT22;3600;48.568;7.870;2024-03-07T10:35:28;7.10;99.90
7117;DHT22;3600;48.568;7.870;2024-03-07T10:37:57;7.30;99.90
7117;DHT22;3600;48.568;7.870;2024-03-07T10:40:28;7.30;99.90
7117;DHT22;3600;48.568;7.870;2024-03-07T10:42:57;7.30;99.90
7117;DHT22;3600;48.568;7.870;2024-03-07T10:45:28;7.40;99.90
7117;DHT22;3600;48.568;7.870;2024-03-07T10:47:57;7.40;99.90
7117;DHT22;3600;48.568;7.870;2024-03-07T10:59:37;7.50;99.90
7117;DHT22;3600;48.568;7.870;2024-03-07T11:04:40;7.50;99.90
7117;DHT22;3600;48.568;7.870;2024-03-07T11:07:07;7.70;99.90
7117;DHT22;3600;48.568;7.870;2024-03-07T11:09:34;7.80;99.90
7117;DHT22;3600;48.568;7.870;2024-03-07T11:12:02;7.80;99.90
7117;DHT22;3600;48.568;7.870;2024-03-07T11:14:35;7.80;99.90
7117;DHT22;3600;48.568;7.870;2024-03-07T11:17:04;7.80;99.90
7117;DHT22;3600;48.568;7.870;2024-03-07T11:19:32;7.80;99.90
7117;DHT22;3600;48.568;7.870;2024-03-07T11:22:04;7.80;99.90
7117;DHT22;3600;48.568;7.870;2024-03-07T11:24:44;7.70;99.90
7117;DHT22;3600;48.568;7.870;2024-03-07T11:27:15;7.80;99.90
7117;DHT22;3600;48.568;7.870;2024-03-07T11:29:49;7.90;99.90
7117;DHT22;3600;48.568;7.870;2024-03-07T11:32:21;7.80;99.90
7117;DHT22;3600;48.568;7.870;2024-03-07T11:34:50;7.70;99.90
7117;DHT22;3600;48.568;7.870;2024-03-07T11:37:37;7.80;99.90
7117;DHT22;3600;48.568;7.870;2024-03-07T11:40:08;7.80;99.90
7117;DHT22;3600;48.568;7.870;2024-03-07T11:42:47;8.00;99.90
7117;DHT22;3600;48.568;7.870;2024-03-07T11:45:19;7.90;99.90
7117;DHT22;3600;48.568;7.870;2024-03-07T11:47:52;7.90;99.90
7117;DHT22;3600;48.568;7.870;2024-03-07T11:50:41;7.80;99.90
7117;DHT22;3600;48.568;7.870;2024-03-07T11:53:09;7.90;99.90
7117;DHT22;3600;48.568;7.870;2024-03-07T11:55:38;7.90;99.90
7117;DHT22;3600;48.568;7.870;2024-03-07T11:58:17;8.00;99.90
7117;DHT22;3600;48.568;7.870;2024-03-07T12:00:45;7.70;99.90
7117;DHT22;3600;48.568;7.870;2024-03-07T12:03:13;7.80;99.90
7117;DHT22;3600;48.568;7.870;2024-03-07T12:05:41;7.80;99.90
7117;DHT22;3600;48.568;7.870;2024-03-07T12:08:10;7.90;99.90
7117;DHT22;3600;48.568;7.870;2024-03-07T12:10:38;7.90;99.90
7117;DHT22;3600;48.568;7.870;2024-03-07T12:13:06;7.90;99.90
7117;DHT22;3600;48.568;7.870;2024-03-07T12:15:34;7.90;99.90
7117;DHT22;3600;48.568;7.870;2024-03-07T12:18:02;7.90;99.90
7117;DHT22;3600;48.568;7.870;2024-03-07T12:20:30;8.00;99.90
7117;DHT22;3600;48.568;7.870;2024-03-07T12:23:03;8.00;99.90
7117;DHT22;3600;48.568;7.870;2024-03-07T12:25:32;7.90;99.90
7117;DHT22;3600;48.568;7.870;2024-03-07T12:28:13;7.90;99.90
7117;DHT22;3600;48.568;7.870;2024-03-07T12:30:52;7.90;99.90
7117;DHT22;3600;48.568;7.870;2024-03-07T12:33:24;8.00;99.90
7117;DHT22;3600;48.568;7.870;2024-03-07T12:35:54;8.10;99.90
7117;DHT22;3600;48.568;7.870;2024-03-07T12:38:29;8.00;99.90
7117;DHT22;3600;48.568;7.870;2024-03-07T12:41:15;8.10;99.90
7117;DHT22;3600;48.568;7.870;2024-03-07T12:43:53;8.20;99.90
7117;DHT22;3600;48.568;7.870;2024-03-07T12:46:23;8.30;99.90
7117;DHT22;3600;48.568;7.870;2024-03-07T12:48:50;8.30;99.90
7117;DHT22;3600;48.568;7.870;2024-03-07T12:51:17;8.30;99.90
7117;DHT22;3600;48.568;7.870;2024-03-07T12:53:47;8.10;99.90
7117;DHT22;3600;48.568;7.870;2024-03-07T12:56:14;8.20;99.90
7117;DHT22;3600;48.568;7.870;2024-03-07T12:58:46;8.20;99.90
7117;DHT22;3600;48.568;7.870;2024-03-07T13:01:14;8.30;99.90
7117;DHT22;3600;48.568;7.870;2024-03-07T13:03:41;8.30;99.90
7117;DHT22;3600;48.568;7.870;2024-03-07T13:06:11;8.20;99.90
7117;DHT22;3600;48.568;7.870;2024-03-07T13:08:39;8.40;99.90
7117;DHT22;3600;48.568;7.870;2024-03-07T13:11:07;8.30;99.90
7117;DHT22;3600;48.568;7.870;2024-03-07T13:13:36;8.10;99.90
7117;DHT22;3600;48.568;7.870;2024-03-07T13:16:03;8.00;99.90
7117;DHT22;3600;48.568;7.870;2024-03-07T13:18:31;8.10;99.90
7117;DHT22;3600;48.568;7.870;2024-03-07T13:21:02;8.10;99.90
7117;DHT22;3600;48.568;7.870;2024-03-07T13:23:33;8.20;99.90
7117;DHT22;3600;48.568;7.870;2024-03-07T13:26:01;8.10;99.90
7117;DHT22;3600;48.568;7.870;2024-03-07T13:28:29;8.20;99.90
7117;DHT22;3600;48.568;7.870;2024-03-07T13:30:56;8.20;99.90
7117;DHT22;3600;48.568;7.870;2024-03-07T13:33:23;8.40;99.90
7117;DHT22;3600;48.568;7.870;2024-03-07T13:35:52;8.40;99.90
7117;DHT22;3600;48.568;7.870;2024-03-07T13:38:19;8.20;99.90
7117;DHT22;3600;48.568;7.870;2024-03-07T13:40:46;8.30;99.90
7117;DHT22;3600;48.568;7.870;2024-03-07T13:43:13;8.30;99.90
7117;DHT22;3600;48.568;7.870;2024-03-07T13:45:39;8.40;99.90
7117;DHT22;3600;48.568;7.870;2024-03-07T13:48:11;8.40;99.90
7117;DHT22;3600;48.568;7.870;2024-03-07T13:50:44;8.40;99.90
7117;DHT22;3600;48.568;7.870;2024-03-07T13:53:24;8.30;99.90
7117;DHT22;3600;48.568;7.870;2024-03-07T13:56:28;8.30;99.90
7117;DHT22;3600;48.568;7.870;2024-03-07T14:01:48;8.30;99.90
7117;DHT22;3600;48.568;7.870;2024-03-07T14:10:13;8.40;99.90
7117;DHT22;3600;48.568;7.870;2024-03-07T14:30:54;8.40;99.90
7117;DHT22;3600;48.568;7.870;2024-03-07T14:33:32;8.50;99.90
7117;DHT22;3600;48.568;7.870;2024-03-07T14:36:05;8.60;99.90
7117;DHT22;3600;48.568;7.870;2024-03-07T14:38:45;8.60;99.90
7117;DHT22;3600;48.568;7.870;2024-03-07T14:41:18;8.50;99.90
7117;DHT22;3600;48.568;7.870;2024-03-07T14:43:45;8.60;99.90
7117;DHT22;3600;48.568;7.870;2024-03-07T14:46:14;8.60;99.90
7117;DHT22;3600;48.568;7.870;2024-03-07T14:48:41;8.60;99.90
7117;DHT22;3600;48.568;7.870;2024-03-07T14:51:11;8.50;99.90
7117;DHT22;3600;48.568;7.870;2024-03-07T14:53:41;8.50;99.90
7117;DHT22;3600;48.568;7.870;2024-03-07T14:56:09;8.40;99.90
7117;DHT22;3600;48.568;7.870;2024-03-07T14:58:37;8.50;99.90
7117;DHT22;3600;48.568;7.870;2024-03-07T15:01:05;8.50;99.90
7117;DHT22;3600;48.568;7.870;2024-03-07T15:03:33;8.50;99.90
7117;DHT22;3600;48.568;7.870;2024-03-07T15:06:00;8.40;99.90
7117;DHT22;3600;48.568;7.870;2024-03-07T15:08:29;8.40;99.90
7117;DHT22;3600;48.568;7.870;2024-03-07T15:11:03;8.50;99.90
7117;DHT22;3600;48.568;7.870;2024-03-07T15:13:35;8.50;99.90
7117;DHT22;3600;48.568;7.870;2024-03-07T15:16:04;8.60;99.90
7117;DHT22;3600;48.568;7.870;2024-03-07T15:18:33;8.60;99.90
7117;DHT22;3600;48.568;7.870;2024-03-07T15:21:00;8.60;99.90
7117;DHT22;3600;48.568;7.870;2024-03-07T15:23:27;8.50;99.90
7117;DHT22;3600;48.568;7.870;2024-03-07T15:25:54;8.50;99.90
7117;DHT22;3600;48.568;7.870;2024-03-07T15:28:21;8.50;99.90
7117;DHT22;3600;48.568;7.870;2024-03-07T15:30:48;8.40;99.90
7117;DHT22;3600;48.568;7.870;2024-03-07T15:33:15;8.40;99.90
7117;DHT22;3600;48.568;7.870;2024-03-07T15:35:43;8.50;99.90
7117;DHT22;3600;48.568;7.870;2024-03-07T15:38:10;8.40;99.90
7117;DHT22;3600;48.568;7.870;2024-03-07T15:40:37;8.40;99.90
7117;DHT22;3600;48.568;7.870;2024-03-07T15:43:04;8.40;99.90
7117;DHT22;3600;48.568;7.870;2024-03-07T15:45:31;8.30;99.90
7117;DHT22;3600;48.568;7.870;2024-03-07T15:47:59;8.40;99.90
7117;DHT22;3600;48.568;7.870;2024-03-07T15:50:27;8.40;99.90
7117;DHT22;3600;48.568;7.870;2024-03-07T15:52:57;8.40;99.90
7117;DHT22;3600;48.568;7.870;2024-03-07T15:55:27;8.50;99.90
7117;DHT22;3600;48.568;7.870;2024-03-07T15:57:56;8.40;99.90
7117;DHT22;3600;48.568;7.870;2024-03-07T16:00:25;8.40;99.90
7117;DHT22;3600;48.568;7.870;2024-03-07T16:03:02;8.40;99.90
7117;DHT22;3600;48.568;7.870;2024-03-07T16:05:42;8.50;99.90
7117;DHT22;3600;48.568;7.870;2024-03-07T16:08:15;8.40;99.90
7117;DHT22;3600;48.568;7.870;2024-03-07T16:10:44;8.50;99.90
7117;DHT22;3600;48.568;7.870;2024-03-07T16:13:13;8.50;99.90
7117;DHT22;3600;48.568;7.870;2024-03-07T16:15:43;8.50;99.90
7117;DHT22;3600;48.568;7.870;2024-03-07T16:18:11;8.40;99.90
7117;DHT22;3600;48.568;7.870;2024-03-07T16:20:39;8.40;99.90
7117;DHT22;3600;48.568;7.870;2024-03-07T16:23:06;8.40;99.90
7117;DHT22;3600;48.568;7.870;2024-03-07T16:25:34;8.40;99.90
7117;DHT22;3600;48.568;7.870;2024-03-07T16:28:05;8.40;99.90
7117;DHT22;3600;48.568;7.870;2024-03-07T16:30:33;8.50;99.90
7117;DHT22;3600;48.568;7.870;2024-03-07T16:33:02;8.50;99.90
7117;DHT22;3600;48.568;7.870;2024-03-07T16:35:30;8.40;99.90
7117;DHT22;3600;48.568;7.870;2024-03-07T16:38:00;8.30;99.90
7117;DHT22;3600;48.568;7.870;2024-03-07T16:40:28;8.30;99.90
7117;DHT22;3600;48.568;7.870;2024-03-07T16:42:59;8.20;99.90
7117;DHT22;3600;48.568;7.870;2024-03-07T16:45:29;8.20;99.90
7117;DHT22;3600;48.568;7.870;2024-03-07T16:47:57;8.10;99.90
7117;DHT22;3600;48.568;7.870;2024-03-07T16:50:30;8.00;99.90
7117;DHT22;3600;48.568;7.870;2024-03-07T16:52:59;8.00;99.90
7117;DHT22;3600;48.568;7.870;2024-03-07T16:55:33;7.90;99.90
7117;DHT22;3600;48.568;7.870;2024-03-07T16:58:00;7.90;99.90
7117;DHT22;3600;48.568;7.870;2024-03-07T17:00:30;7.90;99.90
7117;DHT22;3600;48.568;7.870;2024-03-07T17:03:02;7.90;99.90
7117;DHT22;3600;48.568;7.870;2024-03-07T17:05:36;7.70;99.90
7117;DHT22;3600;48.568;7.870;2024-03-07T17:08:09;7.60;99.90